createdAt,value
2022-10-29T00:00:54.422Z,17.83
2022-10-29T00:01:54.456Z,17.79
2022-10-29T00:02:54.417Z,17.76
2022-10-29T00:03:54.361Z,17.79
2022-10-29T00:04:54.330Z,17.78
2022-10-29T00:05:54.316Z,17.87
2022-10-29T00:06:54.333Z,17.79
2022-10-29T00:07:54.704Z,17.87
2022-10-29T00:08:54.276Z,17.82
2022-10-29T00:09:54.266Z,17.80
2022-10-29T00:10:54.265Z,17.79
2022-10-29T00:11:54.262Z,17.86
2022-10-29T00:12:54.320Z,17.90
2022-10-29T00:13:54.216Z,17.76
2022-10-29T00:14:54.227Z,17.87
2022-10-29T00:15:54.201Z,17.85
2022-10-29T00:16:54.200Z,17.87
2022-10-29T00:17:54.679Z,17.86
2022-10-29T00:18:54.188Z,17.80
2022-10-29T00:19:54.202Z,17.86
2022-10-29T00:20:54.142Z,17.85
2022-10-29T00:21:54.148Z,17.90
2022-10-29T00:22:54.447Z,17.80
2022-10-29T00:23:54.126Z,17.83
2022-10-29T00:24:54.130Z,17.85
2022-10-29T00:25:54.092Z,17.90
2022-10-29T00:26:54.384Z,17.83
2022-10-29T00:27:54.079Z,17.85
2022-10-29T00:28:54.093Z,17.87
2022-10-29T00:29:54.085Z,17.90
2022-10-29T00:30:54.130Z,17.89
2022-10-29T00:31:54.123Z,17.94
2022-10-29T00:32:54.440Z,17.85
2022-10-29T00:33:54.009Z,17.85
2022-10-29T00:34:54.057Z,17.92
2022-10-29T00:35:53.975Z,17.97
2022-10-29T00:36:54.083Z,17.86
2022-10-29T00:37:54.178Z,17.95
2022-10-29T00:38:53.958Z,17.90
2022-10-29T00:39:53.958Z,17.90
2022-10-29T00:40:53.982Z,17.97
2022-10-29T00:41:53.921Z,17.94
2022-10-29T00:42:53.929Z,17.90
2022-10-29T00:43:54.026Z,17.89
2022-10-29T00:44:53.889Z,17.98
2022-10-29T00:45:53.877Z,17.94
2022-10-29T00:46:53.858Z,17.85
2022-10-29T00:47:54.278Z,17.90
2022-10-29T00:48:53.866Z,17.86
2022-10-29T00:49:53.836Z,17.92
2022-10-29T00:50:53.945Z,17.82
2022-10-29T00:51:53.842Z,17.80
2022-10-29T00:52:53.791Z,17.82
2022-10-29T00:53:53.973Z,17.85
2022-10-29T00:54:53.782Z,17.78
2022-10-29T00:55:53.783Z,17.82
2022-10-29T00:56:53.772Z,17.85
2022-10-29T00:57:54.182Z,17.78
2022-10-29T00:58:53.735Z,17.78
2022-10-29T00:59:53.711Z,17.83
2022-10-29T01:00:53.733Z,17.87
2022-10-29T01:01:53.920Z,17.87
2022-10-29T01:02:54.154Z,17.83
2022-10-29T01:03:53.676Z,17.85
2022-10-29T01:04:53.684Z,17.83
2022-10-29T01:05:53.676Z,17.82
2022-10-29T01:06:53.655Z,17.87
2022-10-29T01:07:53.633Z,17.80
2022-10-29T01:08:53.616Z,17.82
2022-10-29T01:09:53.625Z,17.79
2022-10-29T01:10:53.603Z,17.87
2022-10-29T01:11:53.599Z,17.85
2022-10-29T01:12:53.965Z,17.82
2022-10-29T01:13:53.576Z,17.80
2022-10-29T01:14:53.577Z,17.82
2022-10-29T01:15:53.547Z,17.78
2022-10-29T01:16:53.540Z,17.79
2022-10-29T01:17:53.936Z,17.82
2022-10-29T01:18:53.573Z,17.83
2022-10-29T01:19:53.505Z,17.82
2022-10-29T01:20:53.496Z,17.83
2022-10-29T01:21:53.506Z,17.82
2022-10-29T01:22:53.471Z,17.78
2022-10-29T01:23:53.459Z,17.79
2022-10-29T01:24:53.936Z,17.80
2022-10-29T01:25:53.428Z,17.76
2022-10-29T01:26:54.292Z,17.70
2022-10-29T01:27:53.841Z,17.78
2022-10-29T01:28:53.427Z,17.70
2022-10-29T01:29:54.344Z,17.74
2022-10-29T01:30:53.382Z,17.74
2022-10-29T01:31:53.400Z,17.83
2022-10-29T01:32:53.623Z,17.74
2022-10-29T01:33:53.408Z,17.82
2022-10-29T01:34:53.340Z,17.76
2022-10-29T01:35:53.356Z,17.74
2022-10-29T01:36:53.312Z,17.72
2022-10-29T01:37:53.302Z,17.71
2022-10-29T01:38:53.325Z,17.70
2022-10-29T01:39:53.279Z,17.68
2022-10-29T01:40:53.357Z,17.71
2022-10-29T01:41:53.270Z,17.65
2022-10-29T01:42:53.672Z,17.63
2022-10-29T01:43:53.249Z,17.65
2022-10-29T01:44:53.231Z,17.64
2022-10-29T01:45:53.214Z,17.64
2022-10-29T01:46:53.230Z,17.63
2022-10-29T01:47:53.606Z,17.67
2022-10-29T01:48:53.214Z,17.59
2022-10-29T01:49:53.194Z,17.57
2022-10-29T01:50:53.166Z,17.57
2022-10-29T01:51:53.170Z,17.59
2022-10-29T01:52:53.130Z,17.57
2022-10-29T01:53:53.145Z,17.60
2022-10-29T01:54:53.117Z,17.68
2022-10-29T01:55:53.117Z,17.56
2022-10-29T01:56:53.128Z,17.70
2022-10-29T01:57:53.324Z,17.67
2022-10-29T01:58:53.111Z,17.52
2022-10-29T01:59:56.076Z,17.54
2022-10-29T02:00:53.093Z,17.54
2022-10-29T02:01:53.118Z,17.60
2022-10-29T02:02:53.057Z,17.52
2022-10-29T02:03:53.028Z,17.46
2022-10-29T02:04:53.075Z,17.49
2022-10-29T02:05:53.034Z,17.52
2022-10-29T02:06:52.990Z,17.52
2022-10-29T02:07:53.017Z,17.52
2022-10-29T02:08:52.986Z,17.52
2022-10-29T02:09:52.943Z,17.54
2022-10-29T02:10:52.950Z,17.48
2022-10-29T02:11:52.978Z,17.57
2022-10-29T02:12:54.103Z,17.51
2022-10-29T02:13:52.960Z,17.59
2022-10-29T02:14:52.935Z,17.52
2022-10-29T02:15:52.891Z,17.54
2022-10-29T02:16:52.890Z,17.52
2022-10-29T02:17:53.106Z,17.54
2022-10-29T02:18:52.852Z,17.46
2022-10-29T02:19:52.863Z,17.54
2022-10-29T02:20:52.867Z,17.56
2022-10-29T02:21:52.823Z,17.46
2022-10-29T02:22:52.820Z,17.54
2022-10-29T02:23:52.791Z,17.49
2022-10-29T02:24:52.798Z,17.60
2022-10-29T02:25:52.832Z,17.49
2022-10-29T02:26:53.478Z,17.48
2022-10-29T02:27:52.971Z,17.57
2022-10-29T02:28:52.752Z,17.45
2022-10-29T02:29:52.737Z,17.52
2022-10-29T02:30:52.757Z,17.39
2022-10-29T02:31:52.762Z,17.52
2022-10-29T02:32:52.930Z,17.52
2022-10-29T02:33:52.690Z,17.42
2022-10-29T02:34:52.681Z,17.42
2022-10-29T02:35:52.674Z,17.51
2022-10-29T02:36:52.663Z,17.48
2022-10-29T02:37:52.648Z,17.52
2022-10-29T02:38:52.643Z,17.56
2022-10-29T02:39:52.624Z,17.51
2022-10-29T02:40:52.622Z,17.52
2022-10-29T02:41:52.593Z,17.52
2022-10-29T02:42:52.725Z,17.52
2022-10-29T02:43:52.583Z,17.44
2022-10-29T02:44:52.563Z,17.45
2022-10-29T02:45:52.551Z,17.59
2022-10-29T02:46:52.555Z,17.51
2022-10-29T02:47:52.845Z,17.52
2022-10-29T02:48:52.518Z,17.46
2022-10-29T02:49:52.513Z,17.46
2022-10-29T02:50:52.493Z,17.42
2022-10-29T02:51:52.495Z,17.39
2022-10-29T02:52:52.481Z,17.41
2022-10-29T02:53:52.483Z,17.42
2022-10-29T02:54:52.449Z,17.38
2022-10-29T02:55:52.440Z,17.44
2022-10-29T02:56:52.431Z,17.44
2022-10-29T02:57:52.528Z,17.41
2022-10-29T02:58:52.435Z,17.41
2022-10-29T02:59:52.399Z,17.42
2022-10-29T03:00:52.386Z,17.41
2022-10-29T03:01:52.558Z,17.42
2022-10-29T03:02:52.448Z,17.38
2022-10-29T03:03:52.369Z,17.41
2022-10-29T03:04:52.361Z,17.39
2022-10-29T03:05:52.338Z,17.38
2022-10-29T03:06:52.324Z,17.44
2022-10-29T03:07:52.308Z,17.42
2022-10-29T03:08:52.317Z,17.42
2022-10-29T03:09:52.301Z,17.41
2022-10-29T03:10:52.281Z,17.39
2022-10-29T03:11:52.263Z,17.38
2022-10-29T03:12:52.263Z,17.46
2022-10-29T03:13:52.266Z,17.42
2022-10-29T03:14:52.259Z,17.38
2022-10-29T03:15:52.229Z,17.33
2022-10-29T03:16:52.217Z,17.44
2022-10-29T03:17:52.215Z,17.36
2022-10-29T03:18:52.192Z,17.38
2022-10-29T03:19:52.222Z,17.39
2022-10-29T03:20:52.163Z,17.23
2022-10-29T03:21:52.154Z,17.23
2022-10-29T03:22:52.148Z,17.29
2022-10-29T03:23:52.132Z,17.23
2022-10-29T03:24:52.127Z,17.29
2022-10-29T03:25:55.537Z,17.29
2022-10-29T03:26:52.119Z,17.26
2022-10-29T03:27:52.090Z,17.29
2022-10-29T03:28:52.074Z,17.27
2022-10-29T03:29:52.086Z,17.29
2022-10-29T03:30:52.096Z,17.27
2022-10-29T03:31:52.044Z,17.26
2022-10-29T03:32:52.038Z,17.27
2022-10-29T03:33:52.049Z,17.24
2022-10-29T03:34:56.040Z,17.33
2022-10-29T03:35:53.082Z,17.26
2022-10-29T03:36:52.004Z,17.24
2022-10-29T03:37:51.985Z,17.23
2022-10-29T03:38:51.962Z,17.23
2022-10-29T03:39:51.957Z,17.23
2022-10-29T03:40:51.968Z,17.26
2022-10-29T03:41:51.966Z,17.14
2022-10-29T03:42:51.930Z,17.12
2022-10-29T03:43:51.960Z,17.11
2022-10-29T03:44:51.915Z,17.14
2022-10-29T03:45:51.893Z,17.19
2022-10-29T03:46:51.889Z,17.12
2022-10-29T03:47:51.882Z,17.23
2022-10-29T03:48:51.865Z,17.12
2022-10-29T03:49:51.852Z,17.12
2022-10-29T03:50:51.859Z,17.24
2022-10-29T03:51:51.836Z,17.14
2022-10-29T03:52:51.833Z,17.20
2022-10-29T03:53:51.809Z,17.16
2022-10-29T03:54:51.803Z,17.20
2022-10-29T03:55:51.809Z,17.12
2022-10-29T03:56:51.775Z,17.20
2022-10-29T03:57:51.781Z,17.20
2022-10-29T03:58:51.779Z,17.14
2022-10-29T03:59:52.751Z,17.12
2022-10-29T04:00:51.737Z,17.20
2022-10-29T04:01:51.953Z,17.08
2022-10-29T04:02:51.762Z,17.11
2022-10-29T04:03:51.707Z,17.11
2022-10-29T04:04:51.713Z,17.05
2022-10-29T04:05:51.681Z,16.99
2022-10-29T04:06:51.675Z,17.05
2022-10-29T04:07:51.662Z,17.05
2022-10-29T04:08:51.637Z,16.99
2022-10-29T04:09:51.648Z,16.94
2022-10-29T04:10:51.626Z,17.04
2022-10-29T04:11:51.612Z,17.08
2022-10-29T04:12:51.596Z,17.05
2022-10-29T04:13:51.589Z,17.05
2022-10-29T04:15:51.595Z,17.04
2022-10-29T04:16:51.551Z,16.97
2022-10-29T04:17:51.545Z,16.96
2022-10-29T04:18:51.532Z,16.94
2022-10-29T04:19:51.543Z,17.01
2022-10-29T04:26:48.132Z,16.87
2022-10-29T04:28:52.439Z,16.97
2022-10-29T04:29:51.436Z,16.89
2022-10-29T04:30:51.407Z,16.91
2022-10-29T04:31:51.410Z,16.91
2022-10-29T04:32:51.376Z,16.89
2022-10-29T04:33:51.405Z,16.93
2022-10-29T04:34:51.377Z,16.89
2022-10-29T04:35:51.360Z,16.90
2022-10-29T04:36:51.343Z,16.91
2022-10-29T04:37:51.347Z,16.93
2022-10-29T04:38:51.307Z,16.97
2022-10-29T04:39:51.311Z,16.99
2022-10-29T04:40:51.287Z,17.04
2022-10-29T04:41:51.275Z,16.96
2022-10-29T04:42:51.297Z,16.91
2022-10-29T04:43:51.258Z,16.96
2022-10-29T04:44:51.275Z,16.99
2022-10-29T04:45:51.238Z,16.96
2022-10-29T04:46:51.227Z,16.90
2022-10-29T04:47:51.203Z,16.90
2022-10-29T04:48:51.296Z,16.99
2022-10-29T04:49:51.198Z,16.87
2022-10-29T04:50:51.187Z,17.04
2022-10-29T04:51:51.169Z,17.08
2022-10-29T04:52:51.171Z,17.06
2022-10-29T04:53:51.154Z,17.05
2022-10-29T04:54:51.154Z,17.02
2022-10-29T04:55:51.135Z,17.06
2022-10-29T04:56:51.118Z,17.06
2022-10-29T04:57:51.091Z,17.05
2022-10-29T04:58:51.081Z,17.06
2022-10-29T04:59:51.092Z,17.04
2022-10-29T05:00:51.191Z,17.02
2022-10-29T05:01:51.047Z,16.93
2022-10-29T05:02:51.034Z,16.94
2022-10-29T05:03:54.282Z,16.97
2022-10-29T05:04:52.040Z,16.91
2022-10-29T05:05:50.997Z,16.81
2022-10-29T05:06:50.990Z,16.79
2022-10-29T05:07:51.000Z,16.78
2022-10-29T05:08:50.966Z,16.71
2022-10-29T05:09:50.962Z,16.69
2022-10-29T05:10:50.964Z,16.66
2022-10-29T05:11:50.955Z,16.61
2022-10-29T05:12:50.952Z,16.69
2022-10-29T05:13:50.928Z,16.76
2022-10-29T05:14:50.900Z,16.64
2022-10-29T05:15:53.175Z,16.66
2022-10-29T05:16:50.890Z,16.75
2022-10-29T05:17:50.889Z,16.71
2022-10-29T05:18:50.885Z,16.69
2022-10-29T05:19:50.857Z,16.76
2022-10-29T05:20:50.841Z,16.72
2022-10-29T05:21:50.835Z,16.68
2022-10-29T05:22:50.824Z,16.75
2022-10-29T05:23:50.817Z,16.78
2022-10-29T05:24:50.819Z,16.79
2022-10-29T05:25:50.791Z,16.79
2022-10-29T05:26:50.771Z,16.84
2022-10-29T05:27:50.775Z,16.78
2022-10-29T05:28:50.778Z,16.79
2022-10-29T05:29:50.740Z,16.81
2022-10-29T05:30:50.742Z,16.81
2022-10-29T05:31:50.730Z,16.81
2022-10-29T05:32:50.713Z,16.76
2022-10-29T05:33:52.534Z,16.79
2022-10-29T05:34:50.723Z,16.78
2022-10-29T05:35:50.678Z,16.72
2022-10-29T05:36:50.654Z,16.71
2022-10-29T05:37:50.647Z,16.69
2022-10-29T05:38:50.630Z,16.68
2022-10-29T05:39:50.629Z,16.66
2022-10-29T05:40:50.626Z,16.65
2022-10-29T05:41:50.596Z,16.61
2022-10-29T05:42:50.592Z,16.60
2022-10-29T05:43:50.602Z,16.49
2022-10-29T05:44:50.587Z,16.46
2022-10-29T05:45:50.562Z,16.39
2022-10-29T05:46:50.548Z,16.41
2022-10-29T05:47:50.556Z,16.39
2022-10-29T05:48:50.527Z,16.47
2022-10-29T05:49:50.747Z,16.49
2022-10-29T05:50:50.499Z,16.53
2022-10-29T05:51:50.485Z,16.54
2022-10-29T05:52:50.474Z,16.58
2022-10-29T05:53:50.474Z,16.43
2022-10-29T05:54:50.474Z,16.46
2022-10-29T05:55:50.463Z,16.46
2022-10-29T05:56:50.482Z,16.38
2022-10-29T05:57:50.441Z,16.41
2022-10-29T05:58:50.429Z,16.51
2022-10-29T05:59:50.413Z,16.47
2022-10-29T06:00:50.388Z,16.47
2022-10-29T06:01:50.559Z,16.43
2022-10-29T06:02:50.420Z,16.47
2022-10-29T06:03:50.375Z,16.43
2022-10-29T06:04:50.355Z,16.43
2022-10-29T06:05:50.339Z,16.46
2022-10-29T06:06:50.470Z,16.54
2022-10-29T06:07:50.329Z,16.49
2022-10-29T06:08:50.312Z,16.47
2022-10-29T06:09:50.293Z,16.49
2022-10-29T06:10:50.275Z,16.43
2022-10-29T06:11:50.302Z,16.46
2022-10-29T06:12:50.259Z,16.39
2022-10-29T06:13:50.249Z,16.49
2022-10-29T06:14:50.243Z,16.31
2022-10-29T06:15:50.241Z,16.36
2022-10-29T06:16:50.217Z,16.24
2022-10-29T06:17:50.207Z,16.26
2022-10-29T06:18:50.194Z,16.23
2022-10-29T06:19:50.190Z,16.16
2022-10-29T06:20:50.164Z,16.12
2022-10-29T06:21:50.153Z,16.17
2022-10-29T06:22:50.171Z,16.17
2022-10-29T06:23:50.153Z,16.23
2022-10-29T06:24:50.124Z,16.13
2022-10-29T06:25:50.116Z,16.16
2022-10-29T06:26:50.096Z,16.12
2022-10-29T06:27:50.098Z,16.15
2022-10-29T06:28:50.104Z,16.13
2022-10-29T06:29:50.069Z,16.16
2022-10-29T06:30:50.066Z,16.12
2022-10-29T06:31:50.053Z,16.13
2022-10-29T06:32:50.039Z,16.24
2022-10-29T06:33:50.051Z,16.23
2022-10-29T06:34:50.017Z,16.28
2022-10-29T06:35:50.021Z,16.26
2022-10-29T06:36:49.989Z,16.29
2022-10-29T06:37:49.984Z,16.29
2022-10-29T06:38:49.972Z,16.39
2022-10-29T06:39:49.970Z,16.42
2022-10-29T06:40:49.949Z,16.42
2022-10-29T06:41:49.936Z,16.47
2022-10-29T06:42:49.951Z,16.42
2022-10-29T06:43:49.909Z,16.51
2022-10-29T06:44:49.921Z,16.38
2022-10-29T06:45:49.901Z,16.56
2022-10-29T06:46:49.884Z,16.49
2022-10-29T06:47:49.877Z,16.60
2022-10-29T06:48:49.868Z,16.57
2022-10-29T06:49:49.852Z,16.53
2022-10-29T06:50:49.831Z,16.47
2022-10-29T06:51:49.856Z,16.46
2022-10-29T06:52:49.838Z,16.53
2022-10-29T06:53:49.802Z,16.42
2022-10-29T06:54:50.056Z,16.42
2022-10-29T06:55:50.011Z,16.41
2022-10-29T06:56:50.069Z,16.36
2022-10-29T06:57:49.823Z,16.41
2022-10-29T06:58:49.745Z,16.53
2022-10-29T06:59:49.745Z,16.54
2022-10-29T07:00:49.888Z,16.71
2022-10-29T07:01:49.723Z,16.72
2022-10-29T07:02:49.719Z,16.71
2022-10-29T07:03:49.714Z,16.79
2022-10-29T07:04:49.685Z,16.83
2022-10-29T07:05:49.684Z,16.93
2022-10-29T07:06:49.651Z,16.99
2022-10-29T07:07:49.646Z,16.91
2022-10-29T07:08:49.643Z,16.93
2022-10-29T07:09:49.623Z,16.97
2022-10-29T07:10:49.614Z,16.89
2022-10-29T07:11:49.612Z,17.02
2022-10-29T07:12:49.594Z,17.02
2022-10-29T07:13:49.579Z,16.94
2022-10-29T07:14:49.571Z,17.05
2022-10-29T07:15:49.564Z,17.04
2022-10-29T07:16:49.581Z,17.02
2022-10-29T07:17:49.534Z,17.12
2022-10-29T07:18:49.531Z,17.05
2022-10-29T07:19:49.519Z,17.16
2022-10-29T07:20:49.504Z,17.14
2022-10-29T07:21:49.507Z,17.16
2022-10-29T07:22:49.497Z,17.22
2022-10-29T07:23:49.466Z,17.29
2022-10-29T07:24:49.465Z,17.26
2022-10-29T07:25:49.484Z,17.27
2022-10-29T07:26:49.438Z,17.30
2022-10-29T07:27:49.500Z,17.42
2022-10-29T07:28:49.412Z,17.48
2022-10-29T07:29:49.399Z,17.41
2022-10-29T07:30:49.393Z,17.44
2022-10-29T07:31:49.438Z,17.44
2022-10-29T07:32:49.400Z,17.46
2022-10-29T07:33:49.465Z,17.45
2022-10-29T07:34:49.348Z,17.48
2022-10-29T07:35:49.348Z,17.48
2022-10-29T07:36:49.330Z,17.49
2022-10-29T07:37:49.317Z,17.49
2022-10-29T07:38:49.318Z,17.51
2022-10-29T07:39:49.309Z,17.56
2022-10-29T07:40:49.322Z,17.52
2022-10-29T07:41:49.270Z,17.56
2022-10-29T07:42:49.256Z,17.42
2022-10-29T07:43:49.242Z,17.41
2022-10-29T07:44:49.265Z,17.56
2022-10-29T07:45:49.232Z,17.51
2022-10-29T07:46:49.209Z,17.52
2022-10-29T07:47:49.205Z,17.64
2022-10-29T07:48:49.198Z,17.76
2022-10-29T07:49:49.205Z,17.80
2022-10-29T07:50:49.194Z,17.80
2022-10-29T07:51:49.224Z,17.87
2022-10-29T07:52:49.142Z,17.94
2022-10-29T07:53:49.173Z,17.98
2022-10-29T07:54:49.137Z,18.00
2022-10-29T07:55:49.213Z,18.00
2022-10-29T07:56:49.102Z,18.05
2022-10-29T07:57:49.092Z,18.16
2022-10-29T07:58:49.084Z,18.22
2022-10-29T07:59:49.074Z,18.23
2022-10-29T08:00:49.149Z,18.22
2022-10-29T08:01:49.455Z,18.37
2022-10-29T08:02:49.056Z,18.49
2022-10-29T08:03:49.081Z,18.59
2022-10-29T08:04:49.025Z,18.63
2022-10-29T08:05:55.178Z,18.52
2022-10-29T08:06:50.005Z,18.65
2022-10-29T08:07:49.006Z,18.63
2022-10-29T08:08:49.001Z,18.66
2022-10-29T08:09:49.009Z,18.63
2022-10-29T08:10:48.971Z,18.71
2022-10-29T08:11:48.957Z,18.77
2022-10-29T08:12:48.941Z,18.81
2022-10-29T08:13:48.964Z,18.84
2022-10-29T08:14:48.923Z,18.93
2022-10-29T08:15:48.903Z,19.04
2022-10-29T08:16:48.940Z,19.26
2022-10-29T08:17:48.930Z,19.59
2022-10-29T08:18:48.895Z,19.79
2022-10-29T08:19:48.866Z,20.11
2022-10-29T08:20:48.892Z,20.41
2022-10-29T08:21:48.866Z,20.52
2022-10-29T08:22:48.869Z,20.47
2022-10-29T08:23:48.837Z,20.67
2022-10-29T08:24:48.928Z,20.80
2022-10-29T08:25:48.800Z,20.92
2022-10-29T08:26:48.778Z,21.09
2022-10-29T08:27:48.819Z,21.32
2022-10-29T08:28:48.757Z,21.42
2022-10-29T08:29:48.842Z,21.57
2022-10-29T08:30:48.734Z,21.80
2022-10-29T08:31:48.856Z,21.95
2022-10-29T08:32:48.721Z,22.10
2022-10-29T08:33:48.719Z,22.36
2022-10-29T08:34:48.835Z,22.59
2022-10-29T08:35:48.675Z,22.73
2022-10-29T08:36:48.669Z,22.94
2022-10-29T08:37:48.683Z,23.12
2022-10-29T08:38:48.642Z,23.39
2022-10-29T08:39:48.687Z,23.59
2022-10-29T08:40:48.620Z,23.81
2022-10-29T08:41:48.644Z,23.87
2022-10-29T08:42:48.604Z,23.92
2022-10-29T08:43:48.664Z,23.88
2022-10-29T08:44:48.601Z,23.80
2022-10-29T08:45:48.607Z,23.73
2022-10-29T08:46:48.563Z,23.50
2022-10-29T08:47:48.548Z,23.40
2022-10-29T08:48:48.554Z,23.37
2022-10-29T08:49:48.518Z,23.47
2022-10-29T08:50:48.509Z,23.41
2022-10-29T08:51:48.544Z,23.44
2022-10-29T08:52:58.898Z,23.37
2022-10-29T08:53:58.915Z,23.23
2022-10-29T08:54:49.466Z,23.12
2022-10-29T08:55:48.478Z,22.90
2022-10-29T08:56:48.489Z,22.78
2022-10-29T08:57:48.447Z,22.66
2022-10-29T08:58:48.450Z,22.63
2022-10-29T08:59:48.414Z,22.48
2022-10-29T09:00:48.452Z,22.36
2022-10-29T09:01:48.571Z,22.39
2022-10-29T09:02:48.378Z,22.17
2022-10-29T09:03:48.378Z,22.17
2022-10-29T09:04:48.362Z,22.13
2022-10-29T09:05:48.352Z,21.99
2022-10-29T09:06:48.375Z,22.04
2022-10-29T09:07:48.327Z,21.92
2022-10-29T09:08:48.323Z,21.91
2022-10-29T09:09:48.298Z,21.83
2022-10-29T09:10:48.301Z,21.79
2022-10-29T09:11:48.291Z,21.70
2022-10-29T09:12:48.323Z,21.67
2022-10-29T09:13:48.309Z,21.58
2022-10-29T09:14:48.249Z,21.61
2022-10-29T09:15:49.574Z,21.50
2022-10-29T09:16:48.242Z,21.39
2022-10-29T09:17:48.224Z,21.42
2022-10-29T09:18:48.247Z,21.40
2022-10-29T09:19:48.205Z,21.42
2022-10-29T09:20:48.195Z,21.42
2022-10-29T09:21:48.177Z,21.42
2022-10-29T09:22:48.164Z,21.51
2022-10-29T09:23:48.192Z,21.60
2022-10-29T09:24:48.154Z,21.64
2022-10-29T09:25:48.144Z,21.67
2022-10-29T09:26:48.204Z,21.88
2022-10-29T09:27:48.120Z,22.02
2022-10-29T09:28:48.130Z,22.35
2022-10-29T09:29:48.129Z,22.57
2022-10-29T09:30:48.116Z,22.72
2022-10-29T09:31:48.075Z,22.88
2022-10-29T09:32:48.130Z,23.06
2022-10-29T09:33:48.048Z,23.41
2022-10-29T09:34:48.065Z,23.47
2022-10-29T09:35:48.123Z,23.44
2022-10-29T09:36:48.977Z,23.36
2022-10-29T09:37:48.004Z,23.32
2022-10-29T09:38:47.992Z,23.27
2022-10-29T09:39:49.016Z,23.13
2022-10-29T09:40:48.009Z,22.94
2022-10-29T09:41:47.952Z,22.88
2022-10-29T09:42:47.948Z,22.75
2022-10-29T09:43:47.950Z,22.63
2022-10-29T09:44:47.930Z,22.69
2022-10-29T09:45:48.189Z,22.63
2022-10-29T09:46:47.911Z,22.55
2022-10-29T09:47:47.949Z,22.53
2022-10-29T09:48:47.882Z,22.57
2022-10-29T09:49:47.866Z,22.47
2022-10-29T09:50:47.891Z,22.45
2022-10-29T09:51:47.847Z,22.36
2022-10-29T09:52:47.850Z,22.30
2022-10-29T09:53:47.837Z,22.22
2022-10-29T09:54:47.850Z,22.13
2022-10-29T09:55:47.803Z,22.07
2022-10-29T09:56:53.327Z,22.08
2022-10-29T09:57:48.785Z,22.00
2022-10-29T09:58:47.782Z,21.91
2022-10-29T09:59:47.771Z,21.85
2022-10-29T10:00:47.750Z,21.83
2022-10-29T10:01:47.830Z,21.82
2022-10-29T10:02:47.836Z,21.73
2022-10-29T10:03:47.779Z,21.67
2022-10-29T10:04:47.715Z,21.61
2022-10-29T10:05:47.738Z,21.43
2022-10-29T10:06:47.714Z,21.35
2022-10-29T10:07:47.692Z,21.32
2022-10-29T10:08:47.671Z,21.17
2022-10-29T10:09:47.658Z,21.06
2022-10-29T10:10:47.671Z,21.03
2022-10-29T10:11:47.631Z,20.90
2022-10-29T10:12:47.634Z,20.87
2022-10-29T10:13:47.605Z,20.85
2022-10-29T10:14:47.597Z,20.80
2022-10-29T10:15:47.671Z,20.65
2022-10-29T10:16:47.601Z,20.58
2022-10-29T10:17:47.592Z,20.44
2022-10-29T10:18:47.555Z,20.55
2022-10-29T10:19:47.555Z,20.48
2022-10-29T10:20:47.530Z,20.56
2022-10-29T10:21:47.555Z,20.62
2022-10-29T10:22:47.522Z,20.67
2022-10-29T10:23:47.513Z,20.78
2022-10-29T10:24:47.484Z,20.93
2022-10-29T10:25:47.538Z,21.09
2022-10-29T10:26:47.468Z,21.32
2022-10-29T10:27:47.500Z,21.43
2022-10-29T10:28:47.441Z,21.55
2022-10-29T10:29:47.438Z,21.73
2022-10-29T10:30:47.428Z,21.67
2022-10-29T10:31:47.451Z,21.79
2022-10-29T10:32:47.432Z,21.77
2022-10-29T10:33:47.423Z,21.76
2022-10-29T10:34:47.383Z,21.76
2022-10-29T10:35:47.368Z,21.73
2022-10-29T10:36:47.371Z,21.70
2022-10-29T10:37:47.376Z,21.72
2022-10-29T10:38:47.340Z,21.61
2022-10-29T10:39:47.331Z,21.60
2022-10-29T10:40:47.327Z,21.58
2022-10-29T10:41:47.305Z,21.57
2022-10-29T10:42:47.283Z,21.61
2022-10-29T10:43:47.296Z,21.60
2022-10-29T10:44:47.266Z,21.57
2022-10-29T10:45:47.279Z,21.61
2022-10-29T10:46:47.247Z,21.62
2022-10-29T10:47:47.256Z,21.62
2022-10-29T10:48:47.252Z,21.60
2022-10-29T10:49:47.204Z,21.57
2022-10-29T10:50:47.235Z,21.58
2022-10-29T10:51:47.196Z,21.73
2022-10-29T10:52:47.206Z,21.64
2022-10-29T10:53:47.177Z,21.60
2022-10-29T10:54:47.283Z,21.66
2022-10-29T10:55:47.187Z,21.67
2022-10-29T10:56:47.140Z,21.55
2022-10-29T10:57:47.119Z,21.61
2022-10-29T10:58:47.118Z,21.55
2022-10-29T10:59:47.106Z,21.55
2022-10-29T11:00:47.168Z,21.61
2022-10-29T11:01:47.360Z,21.66
2022-10-29T11:02:47.076Z,21.73
2022-10-29T11:03:47.081Z,21.77
2022-10-29T11:04:47.052Z,21.85
2022-10-29T11:05:47.032Z,21.83
2022-10-29T11:06:47.132Z,21.77
2022-10-29T11:07:47.030Z,21.67
2022-10-29T11:08:47.009Z,21.77
2022-10-29T11:09:47.004Z,21.88
2022-10-29T11:10:47.018Z,21.88
2022-10-29T11:11:46.986Z,21.92
2022-10-29T11:12:46.964Z,21.88
2022-10-29T11:13:46.954Z,21.92
2022-10-29T11:14:46.978Z,21.88
2022-10-29T11:15:46.944Z,21.95
2022-10-29T11:16:47.025Z,21.99
2022-10-29T11:17:52.923Z,22.11
2022-10-29T11:18:47.898Z,22.10
2022-10-29T11:19:46.902Z,22.22
2022-10-29T11:20:46.909Z,22.26
2022-10-29T11:21:46.884Z,22.35
2022-10-29T11:22:46.860Z,22.33
2022-10-29T11:23:46.848Z,22.33
2022-10-29T11:24:46.834Z,22.35
2022-10-29T11:25:46.859Z,22.43
2022-10-29T11:26:46.813Z,22.32
2022-10-29T11:27:46.820Z,22.26
2022-10-29T11:28:46.788Z,22.14
2022-10-29T11:29:49.097Z,22.10
2022-10-29T11:30:46.811Z,21.82
2022-10-29T11:31:46.788Z,21.75
2022-10-29T11:32:46.745Z,21.60
2022-10-29T11:33:46.737Z,21.54
2022-10-29T11:34:46.718Z,21.42
2022-10-29T11:35:46.727Z,21.46
2022-10-29T11:36:46.726Z,21.39
2022-10-29T11:37:46.683Z,21.35
2022-10-29T11:38:46.676Z,21.42
2022-10-29T11:39:46.658Z,21.37
2022-10-29T11:40:46.655Z,21.36
2022-10-29T11:41:46.673Z,21.25
2022-10-29T11:42:46.644Z,21.33
2022-10-29T11:43:46.617Z,21.24
2022-10-29T11:44:46.618Z,21.12
2022-10-29T11:45:46.594Z,21.20
2022-10-29T11:46:46.637Z,21.12
2022-10-29T11:47:46.584Z,21.21
2022-10-29T11:48:46.562Z,21.21
2022-10-29T11:49:46.559Z,21.17
2022-10-29T11:50:46.551Z,21.18
2022-10-29T11:51:46.560Z,21.35
2022-10-29T11:52:46.551Z,21.36
2022-10-29T11:53:46.509Z,21.36
2022-10-29T11:54:46.497Z,21.40
2022-10-29T11:55:46.495Z,21.51
2022-10-29T11:56:46.478Z,21.54
2022-10-29T11:57:46.503Z,21.55
2022-10-29T11:58:46.464Z,21.57
2022-10-29T11:59:46.451Z,21.70
2022-10-29T12:00:46.441Z,21.73
2022-10-29T12:01:46.501Z,21.73
2022-10-29T12:02:46.419Z,21.79
2022-10-29T12:03:46.441Z,21.83
2022-10-29T12:04:46.420Z,21.89
2022-10-29T12:05:46.418Z,21.88
2022-10-29T12:06:46.423Z,21.91
2022-10-29T12:07:46.395Z,21.96
2022-10-29T12:08:46.343Z,21.99
2022-10-29T12:09:46.368Z,22.00
2022-10-29T12:10:48.047Z,22.13
2022-10-29T12:11:46.318Z,22.08
2022-10-29T12:12:46.297Z,22.15
2022-10-29T12:13:46.302Z,22.10
2022-10-29T12:14:46.333Z,22.17
2022-10-29T12:15:46.269Z,22.14
2022-10-29T12:16:46.265Z,22.07
2022-10-29T12:17:46.374Z,22.15
2022-10-29T12:18:46.242Z,22.13
2022-10-29T12:19:46.290Z,22.20
2022-10-29T12:20:46.253Z,22.25
2022-10-29T12:21:46.208Z,22.18
2022-10-29T12:22:46.200Z,22.18
2022-10-29T12:23:46.198Z,22.06
2022-10-29T12:24:46.219Z,22.06
2022-10-29T12:25:46.191Z,22.20
2022-10-29T12:26:46.154Z,22.10
2022-10-29T12:27:46.185Z,22.11
2022-10-29T12:28:46.118Z,22.13
2022-10-29T12:29:46.129Z,22.13
2022-10-29T12:30:46.127Z,22.13
2022-10-29T12:31:46.110Z,22.13
2022-10-29T12:32:46.124Z,22.22
2022-10-29T12:33:46.078Z,22.25
2022-10-29T12:34:46.059Z,22.20
2022-10-29T12:35:46.048Z,22.17
2022-10-29T12:36:46.045Z,22.25
2022-10-29T12:37:46.052Z,22.25
2022-10-29T12:38:46.024Z,22.25
2022-10-29T12:39:46.089Z,22.32
2022-10-29T12:40:46.000Z,22.28
2022-10-29T12:41:45.983Z,22.30
2022-10-29T12:42:46.012Z,22.30
2022-10-29T12:43:46.037Z,22.35
2022-10-29T12:44:45.955Z,22.28
2022-10-29T12:46:06.864Z,22.32
2022-10-29T12:46:47.005Z,22.20
2022-10-29T12:47:45.926Z,22.02
2022-10-29T12:48:45.947Z,21.91
2022-10-29T12:49:45.891Z,21.92
2022-10-29T12:50:45.901Z,21.76
2022-10-29T12:51:45.893Z,21.69
2022-10-29T12:52:45.866Z,21.67
2022-10-29T12:53:45.861Z,21.58
2022-10-29T12:54:45.892Z,21.50
2022-10-29T12:55:45.839Z,21.52
2022-10-29T12:56:49.372Z,21.48
2022-10-29T12:57:45.809Z,21.55
2022-10-29T12:58:45.802Z,21.55
2022-10-29T12:59:45.794Z,21.60
2022-10-29T13:00:45.912Z,21.64